sensor_id;sensor_type;location;lat;lon;timestamp;P1;durP1;ratioP1;P2;durP2;ratioP2
49340;SDS011;35209;51.050;13.678;2023-05-07T00:04:11;24.92;;;22.92;;
49340;SDS011;35209;51.050;13.678;2023-05-07T00:09:14;23.65;;;21.77;;
49340;SDS011;35209;51.050;13.678;2023-05-07T00:14:17;24.13;;;22.08;;
49340;SDS011;35209;51.050;13.678;2023-05-07T00:19:19;18.20;;;16.77;;
49340;SDS011;35209;51.050;13.678;2023-05-07T00:24:21;17.73;;;16.20;;
49340;SDS011;35209;51.050;13.678;2023-05-07T00:29:22;18.98;;;17.52;;
49340;SDS011;35209;51.050;13.678;2023-05-07T00:34:24;19.95;;;18.35;;
49340;SDS011;35209;51.050;13.678;2023-05-07T00:39:26;23.73;;;21.73;;
49340;SDS011;35209;51.050;13.678;2023-05-07T00:44:28;24.33;;;22.45;;
49340;SDS011;35209;51.050;13.678;2023-05-07T00:49:43;25.33;;;23.33;;
49340;SDS011;35209;51.050;13.678;2023-05-07T00:54:47;25.70;;;23.65;;
49340;SDS011;35209;51.050;13.678;2023-05-07T00:59:50;28.08;;;25.65;;
49340;SDS011;35209;51.050;13.678;2023-05-07T01:04:52;25.88;;;23.90;;
49340;SDS011;35209;51.050;13.678;2023-05-07T01:09:55;23.10;;;21.42;;
49340;SDS011;35209;51.050;13.678;2023-05-07T01:14:57;24.50;;;22.80;;
49340;SDS011;35209;51.050;13.678;2023-05-07T01:19:59;22.25;;;20.65;;
49340;SDS011;35209;51.050;13.678;2023-05-07T01:25:02;21.60;;;19.77;;
49340;SDS011;35209;51.050;13.678;2023-05-07T01:30:06;23.23;;;21.67;;
49340;SDS011;35209;51.050;13.678;2023-05-07T01:35:10;22.95;;;21.25;;
49340;SDS011;35209;51.050;13.678;2023-05-07T01:40:13;23.67;;;21.95;;
49340;SDS011;35209;51.050;13.678;2023-05-07T01:45:15;20.90;;;19.40;;
49340;SDS011;35209;51.050;13.678;2023-05-07T01:50:18;21.20;;;19.67;;
49340;SDS011;35209;51.050;13.678;2023-05-07T01:55:20;20.45;;;19.08;;
49340;SDS011;35209;51.050;13.678;2023-05-07T02:00:22;18.70;;;17.40;;
49340;SDS011;35209;51.050;13.678;2023-05-07T02:05:24;21.77;;;20.08;;
49340;SDS011;35209;51.050;13.678;2023-05-07T02:10:33;22.23;;;20.48;;
49340;SDS011;35209;51.050;13.678;2023-05-07T02:15:34;20.40;;;19.00;;
49340;SDS011;35209;51.050;13.678;2023-05-07T02:20:37;22.95;;;21.00;;
49340;SDS011;35209;51.050;13.678;2023-05-07T02:25:39;23.08;;;21.33;;
49340;SDS011;35209;51.050;13.678;2023-05-07T02:30:41;20.40;;;18.80;;
49340;SDS011;35209;51.050;13.678;2023-05-07T02:35:43;18.80;;;17.55;;
49340;SDS011;35209;51.050;13.678;2023-05-07T02:40:47;18.58;;;17.25;;
49340;SDS011;35209;51.050;13.678;2023-05-07T02:45:59;18.40;;;17.20;;
49340;SDS011;35209;51.050;13.678;2023-05-07T02:51:16;19.35;;;18.05;;
49340;SDS011;35209;51.050;13.678;2023-05-07T02:56:25;18.80;;;17.50;;
49340;SDS011;35209;51.050;13.678;2023-05-07T03:01:28;18.42;;;16.88;;
49340;SDS011;35209;51.050;13.678;2023-05-07T03:06:35;16.50;;;15.40;;
49340;SDS011;35209;51.050;13.678;2023-05-07T03:11:38;16.08;;;14.88;;
49340;SDS011;35209;51.050;13.678;2023-05-07T03:16:40;15.82;;;14.40;;
49340;SDS011;35209;51.050;13.678;2023-05-07T03:21:42;15.05;;;13.95;;
49340;SDS011;35209;51.050;13.678;2023-05-07T03:26:43;15.15;;;13.82;;
49340;SDS011;35209;51.050;13.678;2023-05-07T03:31:46;13.80;;;12.80;;
49340;SDS011;35209;51.050;13.678;2023-05-07T03:36:48;14.88;;;13.80;;
49340;SDS011;35209;51.050;13.678;2023-05-07T03:41:50;13.57;;;12.48;;
49340;SDS011;35209;51.050;13.678;2023-05-07T03:46:52;15.80;;;14.60;;
49340;SDS011;35209;51.050;13.678;2023-05-07T03:51:54;15.40;;;14.23;;
49340;SDS011;35209;51.050;13.678;2023-05-07T03:56:57;15.45;;;14.10;;
49340;SDS011;35209;51.050;13.678;2023-05-07T04:01:59;15.85;;;14.70;;
49340;SDS011;35209;51.050;13.678;2023-05-07T04:07:06;16.30;;;15.07;;
49340;SDS011;35209;51.050;13.678;2023-05-07T04:12:13;15.05;;;13.95;;
49340;SDS011;35209;51.050;13.678;2023-05-07T04:17:16;16.25;;;15.05;;
49340;SDS011;35209;51.050;13.678;2023-05-07T04:22:18;16.95;;;15.65;;
49340;SDS011;35209;51.050;13.678;2023-05-07T04:27:20;17.08;;;15.90;;
49340;SDS011;35209;51.050;13.678;2023-05-07T04:32:22;18.05;;;16.65;;
49340;SDS011;35209;51.050;13.678;2023-05-07T04:37:27;17.73;;;16.23;;
49340;SDS011;35209;51.050;13.678;2023-05-07T04:42:28;16.92;;;15.25;;
49340;SDS011;35209;51.050;13.678;2023-05-07T04:47:31;15.88;;;14.68;;
49340;SDS011;35209;51.050;13.678;2023-05-07T04:52:34;16.27;;;14.60;;
49340;SDS011;35209;51.050;13.678;2023-05-07T04:57:36;16.65;;;15.25;;
49340;SDS011;35209;51.050;13.678;2023-05-07T05:02:39;17.15;;;15.75;;
49340;SDS011;35209;51.050;13.678;2023-05-07T05:07:41;17.17;;;15.77;;
49340;SDS011;35209;51.050;13.678;2023-05-07T05:12:43;16.00;;;14.75;;
49340;SDS011;35209;51.050;13.678;2023-05-07T05:17:45;15.30;;;14.10;;
49340;SDS011;35209;51.050;13.678;2023-05-07T05:22:48;15.20;;;13.93;;
49340;SDS011;35209;51.050;13.678;2023-05-07T05:27:50;14.65;;;13.45;;
49340;SDS011;35209;51.050;13.678;2023-05-07T05:32:52;12.75;;;11.75;;
49340;SDS011;35209;51.050;13.678;2023-05-07T05:37:54;13.70;;;12.60;;
49340;SDS011;35209;51.050;13.678;2023-05-07T05:42:56;12.95;;;11.95;;
49340;SDS011;35209;51.050;13.678;2023-05-07T05:47:59;13.15;;;12.13;;
49340;SDS011;35209;51.050;13.678;2023-05-07T05:53:02;14.02;;;12.95;;
49340;SDS011;35209;51.050;13.678;2023-05-07T05:58:04;14.40;;;13.30;;
49340;SDS011;35209;51.050;13.678;2023-05-07T06:03:10;15.70;;;14.32;;
49340;SDS011;35209;51.050;13.678;2023-05-07T06:08:13;14.70;;;13.52;;
49340;SDS011;35209;51.050;13.678;2023-05-07T06:13:14;12.90;;;11.95;;
49340;SDS011;35209;51.050;13.678;2023-05-07T06:18:16;13.27;;;12.27;;
49340;SDS011;35209;51.050;13.678;2023-05-07T06:23:18;12.63;;;11.50;;
49340;SDS011;35209;51.050;13.678;2023-05-07T06:28:20;11.75;;;10.77;;
49340;SDS011;35209;51.050;13.678;2023-05-07T06:33:21;15.60;;;9.52;;
49340;SDS011;35209;51.050;13.678;2023-05-07T06:38:23;10.43;;;9.52;;
49340;SDS011;35209;51.050;13.678;2023-05-07T06:43:25;14.30;;;9.73;;
49340;SDS011;35209;51.050;13.678;2023-05-07T06:49:02;9.32;;;8.63;;
49340;SDS011;35209;51.050;13.678;2023-05-07T06:54:04;9.18;;;8.38;;
49340;SDS011;35209;51.050;13.678;2023-05-07T06:59:18;10.02;;;9.23;;
49340;SDS011;35209;51.050;13.678;2023-05-07T07:04:23;9.02;;;8.32;;
49340;SDS011;35209;51.050;13.678;2023-05-07T07:09:34;9.60;;;8.80;;
49340;SDS011;35209;51.050;13.678;2023-05-07T07:14:37;8.32;;;7.68;;
49340;SDS011;35209;51.050;13.678;2023-05-07T07:19:41;9.90;;;9.10;;
49340;SDS011;35209;51.050;13.678;2023-05-07T07:24:44;10.02;;;9.23;;
49340;SDS011;35209;51.050;13.678;2023-05-07T07:29:51;9.60;;;8.90;;
49340;SDS011;35209;51.050;13.678;2023-05-07T07:34:53;8.05;;;7.30;;
49340;SDS011;35209;51.050;13.678;2023-05-07T07:39:55;5.53;;;5.13;;
49340;SDS011;35209;51.050;13.678;2023-05-07T07:44:58;5.32;;;4.93;;
49340;SDS011;35209;51.050;13.678;2023-05-07T07:50:02;4.72;;;4.43;;
49340;SDS011;35209;51.050;13.678;2023-05-07T07:55:05;4.13;;;3.83;;
49340;SDS011;35209;51.050;13.678;2023-05-07T08:00:07;4.50;;;4.13;;
49340;SDS011;35209;51.050;13.678;2023-05-07T08:05:16;4.38;;;4.07;;
49340;SDS011;35209;51.050;13.678;2023-05-07T08:10:19;3.90;;;3.60;;
49340;SDS011;35209;51.050;13.678;2023-05-07T08:15:31;4.40;;;4.10;;
49340;SDS011;35209;51.050;13.678;2023-05-07T08:20:34;4.00;;;3.60;;
49340;SDS011;35209;51.050;13.678;2023-05-07T08:25:49;4.13;;;3.80;;
49340;SDS011;35209;51.050;13.678;2023-05-07T08:30:51;4.25;;;3.95;;
49340;SDS011;35209;51.050;13.678;2023-05-07T08:35:53;3.60;;;3.30;;
49340;SDS011;35209;51.050;13.678;2023-05-07T08:40:56;3.33;;;3.08;;
49340;SDS011;35209;51.050;13.678;2023-05-07T08:45:58;3.25;;;2.95;;
49340;SDS011;35209;51.050;13.678;2023-05-07T08:51:08;3.10;;;2.80;;
49340;SDS011;35209;51.050;13.678;2023-05-07T08:56:10;4.07;;;3.78;;
49340;SDS011;35209;51.050;13.678;2023-05-07T09:01:14;3.70;;;3.50;;
49340;SDS011;35209;51.050;13.678;2023-05-07T09:11:23;4.90;;;4.50;;
49340;SDS011;35209;51.050;13.678;2023-05-07T09:16:28;7.20;;;6.60;;
49340;SDS011;35209;51.050;13.678;2023-05-07T09:21:33;6.72;;;6.25;;
49340;SDS011;35209;51.050;13.678;2023-05-07T09:26:38;7.68;;;7.07;;
49340;SDS011;35209;51.050;13.678;2023-05-07T09:31:42;7.15;;;6.65;;
49340;SDS011;35209;51.050;13.678;2023-05-07T09:36:48;6.88;;;6.38;;
49340;SDS011;35209;51.050;13.678;2023-05-07T09:41:50;7.15;;;6.55;;
49340;SDS011;35209;51.050;13.678;2023-05-07T09:46:59;8.35;;;7.55;;
49340;SDS011;35209;51.050;13.678;2023-05-07T09:52:09;7.53;;;6.93;;
49340;SDS011;35209;51.050;13.678;2023-05-07T09:57:17;6.55;;;6.05;;
49340;SDS011;35209;51.050;13.678;2023-05-07T10:02:26;6.75;;;6.25;;
49340;SDS011;35209;51.050;13.678;2023-05-07T10:07:31;6.47;;;5.97;;
49340;SDS011;35209;51.050;13.678;2023-05-07T10:12:40;8.55;;;5.47;;
49340;SDS011;35209;51.050;13.678;2023-05-07T10:18:00;7.72;;;7.22;;
49340;SDS011;35209;51.050;13.678;2023-05-07T10:23:04;8.10;;;7.50;;
49340;SDS011;35209;51.050;13.678;2023-05-07T10:28:14;7.88;;;7.30;;
49340;SDS011;35209;51.050;13.678;2023-05-07T10:33:22;6.95;;;6.45;;
49340;SDS011;35209;51.050;13.678;2023-05-07T10:38:27;7.05;;;6.65;;
49340;SDS011;35209;51.050;13.678;2023-05-07T10:43:39;7.45;;;6.85;;
49340;SDS011;35209;51.050;13.678;2023-05-07T10:54:23;6.50;;;6.10;;
49340;SDS011;35209;51.050;13.678;2023-05-07T10:59:40;6.85;;;6.35;;
49340;SDS011;35209;51.050;13.678;2023-05-07T11:10:55;5.85;;;5.43;;
49340;SDS011;35209;51.050;13.678;2023-05-07T11:16:18;5.78;;;5.38;;
49340;SDS011;35209;51.050;13.678;2023-05-07T11:21:31;5.70;;;5.20;;
49340;SDS011;35209;51.050;13.678;2023-05-07T11:26:47;5.72;;;5.32;;
49340;SDS011;35209;51.050;13.678;2023-05-07T11:31:53;5.22;;;4.82;;
49340;SDS011;35209;51.050;13.678;2023-05-07T11:36:58;5.28;;;4.97;;
49340;SDS011;35209;51.050;13.678;2023-05-07T11:42:31;5.90;;;5.50;;
49340;SDS011;35209;51.050;13.678;2023-05-07T11:47:41;5.47;;;4.97;;
49340;SDS011;35209;51.050;13.678;2023-05-07T11:52:51;4.90;;;4.60;;
49340;SDS011;35209;51.050;13.678;2023-05-07T11:57:53;4.82;;;4.43;;
49340;SDS011;35209;51.050;13.678;2023-05-07T12:02:55;5.47;;;5.15;;
49340;SDS011;35209;51.050;13.678;2023-05-07T12:07:57;5.68;;;5.18;;
49340;SDS011;35209;51.050;13.678;2023-05-07T12:12:59;6.07;;;5.47;;
49340;SDS011;35209;51.050;13.678;2023-05-07T12:18:01;5.35;;;4.95;;
49340;SDS011;35209;51.050;13.678;2023-05-07T12:23:02;4.82;;;4.53;;
49340;SDS011;35209;51.050;13.678;2023-05-07T12:28:05;4.78;;;4.47;;
49340;SDS011;35209;51.050;13.678;2023-05-07T12:33:08;5.15;;;4.75;;
49340;SDS011;35209;51.050;13.678;2023-05-07T12:38:11;4.82;;;4.53;;
49340;SDS011;35209;51.050;13.678;2023-05-07T12:43:15;5.93;;;5.43;;
49340;SDS011;35209;51.050;13.678;2023-05-07T12:48:20;5.07;;;4.78;;
49340;SDS011;35209;51.050;13.678;2023-05-07T12:53:25;4.32;;;4.03;;
49340;SDS011;35209;51.050;13.678;2023-05-07T12:58:29;4.82;;;4.43;;
49340;SDS011;35209;51.050;13.678;2023-05-07T13:03:32;5.10;;;4.80;;
49340;SDS011;35209;51.050;13.678;2023-05-07T13:08:37;4.03;;;3.78;;
49340;SDS011;35209;51.050;13.678;2023-05-07T13:13:41;5.15;;;4.50;;
49340;SDS011;35209;51.050;13.678;2023-05-07T13:18:43;4.43;;;4.13;;
49340;SDS011;35209;51.050;13.678;2023-05-07T13:23:47;5.05;;;4.72;;
49340;SDS011;35209;51.050;13.678;2023-05-07T13:28:48;4.55;;;4.25;;
49340;SDS011;35209;51.050;13.678;2023-05-07T13:33:50;4.22;;;3.92;;
49340;SDS011;35209;51.050;13.678;2023-05-07T13:38:52;4.38;;;4.07;;
49340;SDS011;35209;51.050;13.678;2023-05-07T13:43:54;4.07;;;3.80;;
49340;SDS011;35209;51.050;13.678;2023-05-07T13:48:55;4.10;;;3.90;;
49340;SDS011;35209;51.050;13.678;2023-05-07T13:53:57;3.30;;;3.10;;
49340;SDS011;35209;51.050;13.678;2023-05-07T13:58:59;3.33;;;3.13;;
49340;SDS011;35209;51.050;13.678;2023-05-07T14:04:01;3.60;;;3.40;;
49340;SDS011;35209;51.050;13.678;2023-05-07T14:09:03;4.13;;;3.83;;
49340;SDS011;35209;51.050;13.678;2023-05-07T14:14:05;4.38;;;4.05;;
49340;SDS011;35209;51.050;13.678;2023-05-07T14:19:07;3.75;;;3.45;;
49340;SDS011;35209;51.050;13.678;2023-05-07T14:24:08;2.42;;;2.33;;
49340;SDS011;35209;51.050;13.678;2023-05-07T14:29:10;2.88;;;2.67;;
49340;SDS011;35209;51.050;13.678;2023-05-07T14:34:12;2.13;;;2.03;;
49340;SDS011;35209;51.050;13.678;2023-05-07T14:39:14;2.50;;;2.30;;
49340;SDS011;35209;51.050;13.678;2023-05-07T14:44:16;2.55;;;2.33;;
49340;SDS011;35209;51.050;13.678;2023-05-07T14:49:17;2.45;;;2.25;;
49340;SDS011;35209;51.050;13.678;2023-05-07T14:54:19;2.05;;;1.88;;
49340;SDS011;35209;51.050;13.678;2023-05-07T14:59:21;3.15;;;2.08;;
49340;SDS011;35209;51.050;13.678;2023-05-07T15:04:23;2.53;;;2.33;;
49340;SDS011;35209;51.050;13.678;2023-05-07T15:09:25;2.60;;;2.40;;
49340;SDS011;35209;51.050;13.678;2023-05-07T15:14:27;3.00;;;2.70;;
49340;SDS011;35209;51.050;13.678;2023-05-07T15:19:29;3.85;;;2.80;;
49340;SDS011;35209;51.050;13.678;2023-05-07T15:24:31;3.20;;;3.00;;
49340;SDS011;35209;51.050;13.678;2023-05-07T15:29:33;7.05;;;3.05;;
49340;SDS011;35209;51.050;13.678;2023-05-07T15:34:36;4.07;;;3.63;;
49340;SDS011;35209;51.050;13.678;2023-05-07T15:39:37;3.65;;;3.35;;
49340;SDS011;35209;51.050;13.678;2023-05-07T15:44:39;3.42;;;3.13;;
49340;SDS011;35209;51.050;13.678;2023-05-07T15:49:41;3.50;;;3.28;;
49340;SDS011;35209;51.050;13.678;2023-05-07T15:54:43;4.28;;;3.97;;
49340;SDS011;35209;51.050;13.678;2023-05-07T15:59:45;5.18;;;4.72;;
49340;SDS011;35209;51.050;13.678;2023-05-07T16:04:47;4.75;;;4.30;;
49340;SDS011;35209;51.050;13.678;2023-05-07T16:09:49;5.43;;;4.45;;
49340;SDS011;35209;51.050;13.678;2023-05-07T16:14:51;4.10;;;3.80;;
49340;SDS011;35209;51.050;13.678;2023-05-07T16:19:52;4.07;;;3.70;;
49340;SDS011;35209;51.050;13.678;2023-05-07T16:24:54;4.35;;;4.05;;
49340;SDS011;35209;51.050;13.678;2023-05-07T16:29:56;4.25;;;3.80;;
49340;SDS011;35209;51.050;13.678;2023-05-07T16:34:58;4.82;;;4.53;;
49340;SDS011;35209;51.050;13.678;2023-05-07T16:40:00;4.82;;;4.35;;
49340;SDS011;35209;51.050;13.678;2023-05-07T16:45:02;5.43;;;5.00;;
49340;SDS011;35209;51.050;13.678;2023-05-07T16:50:07;4.72;;;4.43;;
49340;SDS011;35209;51.050;13.678;2023-05-07T16:55:12;4.47;;;4.15;;
49340;SDS011;35209;51.050;13.678;2023-05-07T17:00:17;4.70;;;4.30;;
49340;SDS011;35209;51.050;13.678;2023-05-07T17:05:20;4.38;;;3.97;;
49340;SDS011;35209;51.050;13.678;2023-05-07T17:10:22;4.90;;;4.50;;
49340;SDS011;35209;51.050;13.678;2023-05-07T17:15:26;4.40;;;4.10;;
49340;SDS011;35209;51.050;13.678;2023-05-07T17:20:27;4.60;;;4.20;;
49340;SDS011;35209;51.050;13.678;2023-05-07T17:25:30;3.92;;;3.63;;
49340;SDS011;35209;51.050;13.678;2023-05-07T17:30:32;5.35;;;4.28;;
49340;SDS011;35209;51.050;13.678;2023-05-07T17:35:37;5.07;;;4.68;;
49340;SDS011;35209;51.050;13.678;2023-05-07T17:40:39;4.45;;;4.07;;
49340;SDS011;35209;51.050;13.678;2023-05-07T17:45:40;4.93;;;4.63;;
49340;SDS011;35209;51.050;13.678;2023-05-07T17:50:45;5.63;;;4.43;;
49340;SDS011;35209;51.050;13.678;2023-05-07T17:55:47;4.57;;;4.18;;
49340;SDS011;35209;51.050;13.678;2023-05-07T18:00:50;4.63;;;4.32;;
49340;SDS011;35209;51.050;13.678;2023-05-07T18:05:54;4.50;;;4.20;;
49340;SDS011;35209;51.050;13.678;2023-05-07T18:10:56;4.47;;;4.18;;
49340;SDS011;35209;51.050;13.678;2023-05-07T18:15:58;4.57;;;4.15;;
49340;SDS011;35209;51.050;13.678;2023-05-07T18:21:03;4.55;;;4.20;;
49340;SDS011;35209;51.050;13.678;2023-05-07T18:26:05;5.05;;;4.65;;
49340;SDS011;35209;51.050;13.678;2023-05-07T18:31:09;5.35;;;4.85;;
49340;SDS011;35209;51.050;13.678;2023-05-07T18:36:11;5.65;;;5.15;;
49340;SDS011;35209;51.050;13.678;2023-05-07T18:41:13;6.35;;;5.85;;
49340;SDS011;35209;51.050;13.678;2023-05-07T18:46:14;5.28;;;4.88;;
49340;SDS011;35209;51.050;13.678;2023-05-07T18:51:16;5.78;;;5.28;;
49340;SDS011;35209;51.050;13.678;2023-05-07T18:56:18;5.88;;;5.47;;
49340;SDS011;35209;51.050;13.678;2023-05-07T19:01:21;5.90;;;5.50;;
49340;SDS011;35209;51.050;13.678;2023-05-07T19:06:23;5.88;;;5.45;;
49340;SDS011;35209;51.050;13.678;2023-05-07T19:11:26;6.45;;;5.85;;
49340;SDS011;35209;51.050;13.678;2023-05-07T19:16:28;5.75;;;5.35;;
49340;SDS011;35209;51.050;13.678;2023-05-07T19:21:36;6.28;;;5.68;;
49340;SDS011;35209;51.050;13.678;2023-05-07T19:27:07;6.90;;;6.35;;
49340;SDS011;35209;51.050;13.678;2023-05-07T19:32:09;6.03;;;5.53;;
49340;SDS011;35209;51.050;13.678;2023-05-07T19:37:11;6.38;;;5.97;;
49340;SDS011;35209;51.050;13.678;2023-05-07T19:42:13;6.68;;;6.18;;
49340;SDS011;35209;51.050;13.678;2023-05-07T19:47:14;6.43;;;5.93;;
49340;SDS011;35209;51.050;13.678;2023-05-07T19:52:16;7.88;;;7.32;;
49340;SDS011;35209;51.050;13.678;2023-05-07T19:57:18;7.45;;;6.85;;
49340;SDS011;35209;51.050;13.678;2023-05-07T20:02:20;6.35;;;5.95;;
49340;SDS011;35209;51.050;13.678;2023-05-07T20:07:22;6.28;;;5.88;;
49340;SDS011;35209;51.050;13.678;2023-05-07T20:12:23;5.75;;;5.35;;
49340;SDS011;35209;51.050;13.678;2023-05-07T20:17:25;5.95;;;5.55;;
49340;SDS011;35209;51.050;13.678;2023-05-07T20:22:30;6.45;;;5.90;;
49340;SDS011;35209;51.050;13.678;2023-05-07T20:27:32;5.70;;;5.20;;
49340;SDS011;35209;51.050;13.678;2023-05-07T20:32:35;5.20;;;4.80;;
49340;SDS011;35209;51.050;13.678;2023-05-07T20:37:37;5.60;;;5.20;;
49340;SDS011;35209;51.050;13.678;2023-05-07T20:42:39;5.13;;;4.72;;
49340;SDS011;35209;51.050;13.678;2023-05-07T20:47:42;4.72;;;4.30;;
49340;SDS011;35209;51.050;13.678;2023-05-07T20:52:44;4.68;;;4.05;;
49340;SDS011;35209;51.050;13.678;2023-05-07T20:57:46;4.65;;;4.20;;
49340;SDS011;35209;51.050;13.678;2023-05-07T21:02:48;3.95;;;3.65;;
49340;SDS011;35209;51.050;13.678;2023-05-07T21:07:50;4.13;;;3.72;;
49340;SDS011;35209;51.050;13.678;2023-05-07T21:12:51;4.03;;;3.72;;
49340;SDS011;35209;51.050;13.678;2023-05-07T21:17:53;5.78;;;3.72;;
49340;SDS011;35209;51.050;13.678;2023-05-07T21:22:55;4.30;;;3.97;;
49340;SDS011;35209;51.050;13.678;2023-05-07T21:27:57;4.07;;;3.78;;
49340;SDS011;35209;51.050;13.678;2023-05-07T21:32:58;4.82;;;3.95;;
49340;SDS011;35209;51.050;13.678;2023-05-07T21:38:00;4.03;;;3.72;;
49340;SDS011;35209;51.050;13.678;2023-05-07T21:43:03;4.53;;;4.20;;
49340;SDS011;35209;51.050;13.678;2023-05-07T21:48:05;4.00;;;3.70;;
49340;SDS011;35209;51.050;13.678;2023-05-07T21:53:07;4.28;;;3.97;;
49340;SDS011;35209;51.050;13.678;2023-05-07T21:58:09;4.50;;;4.20;;
49340;SDS011;35209;51.050;13.678;2023-05-07T22:03:11;4.65;;;3.97;;
49340;SDS011;35209;51.050;13.678;2023-05-07T22:08:12;4.35;;;3.95;;
49340;SDS011;35209;51.050;13.678;2023-05-07T22:13:14;4.30;;;4.00;;
49340;SDS011;35209;51.050;13.678;2023-05-07T22:18:17;4.72;;;4.32;;
49340;SDS011;35209;51.050;13.678;2023-05-07T22:23:18;4.50;;;4.15;;
49340;SDS011;35209;51.050;13.678;2023-05-07T22:28:20;4.93;;;4.53;;
49340;SDS011;35209;51.050;13.678;2023-05-07T22:33:22;4.10;;;3.80;;
49340;SDS011;35209;51.050;13.678;2023-05-07T22:38:24;4.72;;;4.32;;
49340;SDS011;35209;51.050;13.678;2023-05-07T22:43:25;5.00;;;4.60;;
49340;SDS011;35209;51.050;13.678;2023-05-07T22:48:27;6.30;;;4.55;;
49340;SDS011;35209;51.050;13.678;2023-05-07T22:53:29;4.95;;;4.55;;
49340;SDS011;35209;51.050;13.678;2023-05-07T22:58:31;5.50;;;4.97;;
49340;SDS011;35209;51.050;13.678;2023-05-07T23:03:33;5.15;;;4.80;;
49340;SDS011;35209;51.050;13.678;2023-05-07T23:08:35;4.90;;;4.57;;
49340;SDS011;35209;51.050;13.678;2023-05-07T23:13:36;4.68;;;4.28;;
49340;SDS011;35209;51.050;13.678;2023-05-07T23:18:38;4.85;;;4.55;;
49340;SDS011;35209;51.050;13.678;2023-05-07T23:23:40;4.97;;;4.57;;
49340;SDS011;35209;51.050;13.678;2023-05-07T23:28:42;4.90;;;4.50;;
49340;SDS011;35209;51.050;13.678;2023-05-07T23:33:43;5.75;;;5.35;;
49340;SDS011;35209;51.050;13.678;2023-05-07T23:38:45;5.13;;;4.72;;
49340;SDS011;35209;51.050;13.678;2023-05-07T23:43:47;4.80;;;4.47;;
49340;SDS011;35209;51.050;13.678;2023-05-07T23:48:49;5.03;;;4.63;;
49340;SDS011;35209;51.050;13.678;2023-05-07T23:53:51;6.40;;;5.00;;
49340;SDS011;35209;51.050;13.678;2023-05-07T23:58:52;5.68;;;5.20;;
